Time;durP1;ratioP1;P1;durP2;ratioP2;P2;SDS_P1;SDS_P2;PMS_P1;PMS_P2;Temp;Humidity;BMP_temperature;BMP_pressure;BME280_temperature;BME280_humidity;BME280_pressure;Samples;Min_cycle;Max_cycle;Signal;HPM_P1;HPM_P2
2024/03/31 00:00:31;;;;;;;0.10;0.10;;;;;;;16.82;51.24;99032.28;4444928;32;33934;-82
2024/03/31 00:02:57;;;;;;;0.60;0.57;;;;;;;16.81;51.23;99015.44;4453539;32;33564;-81
2024/03/31 00:05:24;;;;;;;0.80;0.80;;;;;;;16.69;51.47;99011.06;4469965;32;33675;-82
2024/03/31 00:07:51;;;;;;;3.55;0.52;;;;;;;16.64;51.37;99008.75;4456492;32;33812;-82
2024/03/31 00:10:18;;;;;;;1.75;1.45;;;;;;;16.61;51.25;99001.00;4444275;32;34545;-82
2024/03/31 00:12:44;;;;;;;0.45;0.45;;;;;;;16.43;51.92;98999.84;4444738;32;33862;-81
2024/03/31 00:15:11;;;;;;;0.35;0.35;;;;;;;16.26;52.32;98993.19;4444238;32;32931;-81
2024/03/31 00:17:38;;;;;;;1.30;1.20;;;;;;;16.41;51.74;98996.44;4457701;32;34697;-81
2024/03/31 00:20:05;;;;;;;0.17;0.17;;;;;;;16.24;52.16;99007.63;4470185;32;34846;-82
2024/03/31 00:22:33;;;;;;;3.80;0.60;;;;;;;16.16;52.26;99000.22;4456453;32;32301;-82
2024/03/31 00:25:00;;;;;;;14.38;0.82;;;;;;;16.20;52.19;99000.84;4444701;32;33807;-81
2024/03/31 00:27:27;;;;;;;2.05;0.90;;;;;;;16.04;52.82;98996.72;4470090;32;33445;-83
2024/03/31 00:29:55;;;;;;;0.32;0.28;;;;;;;16.07;52.69;98992.97;4456925;32;32408;-83
2024/03/31 00:32:22;;;;;;;0.10;0.10;;;;;;;15.99;52.83;98984.72;4443564;32;33759;-83
2024/03/31 00:34:49;;;;;;;0.40;0.40;;;;;;;15.80;53.54;98994.16;4457071;32;33094;-83
2024/03/31 00:37:15;;;;;;;0.70;0.70;;;;;;;15.87;53.21;98997.22;4457508;32;33173;-83
2024/03/31 00:39:42;;;;;;;1.52;0.77;;;;;;;15.80;53.57;99004.81;4444582;32;34191;-82
2024/03/31 00:42:09;;;;;;;0.50;0.30;;;;;;;15.94;53.08;98998.41;4469950;32;32966;-82
2024/03/31 00:44:36;;;;;;;0.25;0.25;;;;;;;15.92;53.10;98999.50;4457321;32;34295;-82
2024/03/31 00:47:03;;;;;;;0.20;0.20;;;;;;;15.96;53.03;99009.78;4444601;32;34937;-82
2024/03/31 00:49:29;;;;;;;0.37;0.13;;;;;;;15.96;53.00;99006.28;4455846;32;33652;-82
2024/03/31 00:51:56;;;;;;;2.70;0.25;;;;;;;15.85;53.23;99009.78;4456255;32;31868;-82
2024/03/31 00:54:23;;;;;;;0.10;0.10;;;;;;;15.87;53.11;98999.88;4431094;32;35543;-82
2024/03/31 00:56:51;;;;;;;0.10;0.10;;;;;;;16.20;52.13;98991.03;4470122;32;33904;-81
2024/03/31 00:59:17;;;;;;;0.52;0.52;;;;;;;15.62;53.74;99004.41;4444947;32;32854;-81
2024/03/31 01:01:45;;;;;;;2.22;1.52;;;;;;;15.75;53.16;98998.16;4444339;32;33073;-81
2024/03/31 01:04:11;;;;;;;2.67;1.08;;;;;;;15.62;53.93;99004.41;4469987;32;33251;-81
2024/03/31 01:06:38;;;;;;;0.20;0.15;;;;;;;16.00;52.84;98992.63;4456721;32;33850;-81
2024/03/31 01:09:05;;;;;;;0.77;0.77;;;;;;;15.51;54.23;98999.03;4431398;32;34141;-81
2024/03/31 01:11:31;;;;;;;0.28;0.10;;;;;;;15.43;54.56;98998.81;4456834;32;33414;-81
2024/03/31 01:13:59;;;;;;;0.37;0.20;;;;;;;15.40;54.57;98988.37;4457009;32;34047;-82
2024/03/31 01:16:26;;;;;;;1.60;1.33;;;;;;;15.34;55.22;98994.19;4456967;32;35096;-82
2024/03/31 01:18:53;;;;;;;0.37;0.37;;;;;;;15.38;54.99;98992.97;4455131;32;32444;-82
2024/03/31 01:21:20;;;;;;;0.32;0.32;;;;;;;15.26;55.24;98991.25;4470096;32;34042;-82
2024/03/31 01:23:54;;;;;;;1.00;0.40;;;;;;;15.25;55.21;98994.87;4444732;32;34622;-82
2024/03/31 01:26:21;;;;;;;0.47;0.47;;;;;;;15.36;55.28;98994.91;4444687;32;32868;-82
2024/03/31 01:28:49;;;;;;;1.45;0.73;;;;;;;15.53;54.43;98991.81;4444659;32;32479;-83
2024/03/31 01:31:15;;;;;;;0.17;0.17;;;;;;;15.34;55.01;98994.19;4457232;32;32156;-83
2024/03/31 01:33:43;;;;;;;1.65;1.15;;;;;;;15.52;54.42;98986.59;4456767;32;32364;-83
2024/03/31 01:36:10;;;;;;;0.77;0.20;;;;;;;15.58;53.95;98979.00;4431273;32;34798;-82
2024/03/31 01:38:37;;;;;;;0.25;0.25;;;;;;;15.46;54.55;98982.59;4457258;32;32581;-83
2024/03/31 01:41:03;;;;;;;2.60;0.95;;;;;;;15.30;54.91;98988.25;4444223;32;33486;-83
2024/03/31 01:43:30;;;;;;;2.03;0.82;;;;;;;15.28;55.30;98994.63;4444059;32;35284;-83
2024/03/31 01:45:57;;;;;;;0.03;0.03;;;;;;;15.26;55.34;98991.25;4447332;32;33354;-83
2024/03/31 01:48:23;;;;;;;0.35;0.35;;;;;;;15.26;55.40;98993.91;4453314;32;33087;-83
2024/03/31 01:50:50;;;;;;;0.98;0.75;;;;;;;15.35;55.17;99003.84;4444295;32;31698;-83
2024/03/31 01:53:17;;;;;;;0.85;0.62;;;;;;;15.07;55.85;99005.94;4467441;32;33829;-83
2024/03/31 01:55:43;;;;;;;0.25;0.25;;;;;;;15.25;55.45;99001.03;4447328;32;33482;-83
2024/03/31 01:58:10;;;;;;;0.75;0.75;;;;;;;15.31;55.19;98994.41;4432171;32;34562;-83
2024/03/31 02:00:37;;;;;;;0.50;0.50;;;;;;;15.24;55.22;98996.69;4447151;32;33295;-83
2024/03/31 02:03:04;;;;;;;0.85;0.37;;;;;;;15.28;55.19;98989.31;4446953;32;33664;-83
2024/03/31 02:05:31;;;;;;;1.05;0.77;;;;;;;14.90;56.60;98993.03;4435068;32;34332;-82
2024/03/31 02:07:59;;;;;;;0.47;0.40;;;;;;;14.95;56.21;98996.19;4446370;32;33231;-82
2024/03/31 02:10:26;;;;;;;0.28;0.22;;;;;;;14.81;56.10;98993.72;4448498;32;32924;-82
2024/03/31 02:12:53;;;;;;;0.00;0.00;;;;;;;15.00;55.33;99002.03;4451739;32;33009;-82
2024/03/31 02:15:19;;;;;;;2.17;1.55;;;;;;;15.00;54.55;99002.03;4452579;32;33682;-82
2024/03/31 02:17:46;;;;;;;0.75;0.65;;;;;;;15.01;54.58;99003.72;4448216;32;33729;-82
2024/03/31 02:20:14;;;;;;;3.20;0.85;;;;;;;14.95;53.60;99009.47;4423016;32;32196;-81
2024/03/31 02:22:40;;;;;;;0.00;0.00;;;;;;;15.05;52.76;99007.88;4461105;32;33870;-81
2024/03/31 02:25:07;;;;;;;0.32;0.13;;;;;;;15.12;51.96;99005.59;4448357;32;33473;-81
2024/03/31 02:27:34;;;;;;;1.30;1.20;;;;;;;15.16;52.20;99023.00;4446870;32;33990;-81
2024/03/31 02:30:01;;;;;;;1.50;0.68;;;;;;;15.23;49.07;99018.06;4462977;32;33722;-82
2024/03/31 02:32:29;;;;;;;0.00;0.00;;;;;;;15.31;48.12;99011.22;4431090;32;32915;-82
2024/03/31 02:34:57;;;;;;;20.55;1.65;;;;;;;15.61;47.89;99008.00;4421311;32;34818;-82
2024/03/31 02:37:24;;;;;;;1.25;0.65;;;;;;;15.91;44.47;99009.31;4462285;32;34574;-82
2024/03/31 02:39:51;;;;;;;1.05;0.90;;;;;;;16.12;44.69;99002.28;4439110;32;32105;-82
2024/03/31 02:42:18;;;;;;;0.10;0.10;;;;;;;16.34;43.53;98997.94;4432348;32;33688;-82
2024/03/31 02:44:45;;;;;;;0.05;0.05;;;;;;;16.43;42.25;99005.19;4449130;32;32903;-82
2024/03/31 02:47:12;;;;;;;0.73;0.73;;;;;;;16.73;41.58;98995.69;4433429;32;32927;-83
2024/03/31 02:49:39;;;;;;;0.45;0.45;;;;;;;16.92;40.59;98997.69;4434789;32;32463;-82
2024/03/31 02:52:07;;;;;;;0.52;0.47;;;;;;;16.91;40.15;98999.53;4435734;32;34236;-83
2024/03/31 02:54:34;;;;;;;0.57;0.57;;;;;;;17.15;39.21;98996.63;4421483;32;35496;-83
2024/03/31 02:57:01;;;;;;;0.10;0.10;;;;;;;17.35;38.68;98986.94;4450803;32;34501;-83
2024/03/31 02:59:29;;;;;;;2.12;0.85;;;;;;;17.27;37.70;99000.09;4436034;32;32065;-83
2024/03/31 03:01:56;;;;;;;0.00;0.00;;;;;;;17.56;37.27;98995.78;4436064;32;33176;-83
2024/03/31 03:04:23;;;;;;;0.43;0.25;;;;;;;17.65;37.57;98997.66;4449871;32;34313;-83
2024/03/31 03:06:50;;;;;;;0.57;0.57;;;;;;;17.63;36.68;99002.31;4433943;32;33561;-83
2024/03/31 03:09:19;;;;;;;1.85;1.05;;;;;;;17.66;36.77;98996.72;4447465;32;33319;-81
2024/03/31 03:11:46;;;;;;;0.85;0.47;;;;;;;17.65;36.32;99011.03;4446773;32;32391;-81
2024/03/31 03:14:13;;;;;;;0.82;0.82;;;;;;;17.79;35.58;99006.34;4435812;32;33238;-81
2024/03/31 03:16:40;;;;;;;1.30;1.17;;;;;;;17.90;35.21;99009.81;4453393;32;32554;-82
2024/03/31 03:19:07;;;;;;;0.40;0.40;;;;;;;17.97;34.77;99010.13;4449678;32;34839;-82
2024/03/31 03:21:34;;;;;;;0.45;0.45;;;;;;;18.11;35.13;99017.78;4449299;32;34848;-82
2024/03/31 03:24:01;;;;;;;0.77;0.35;;;;;;;17.97;34.70;99019.97;4463077;32;33912;-82
2024/03/31 03:26:28;;;;;;;0.08;0.08;;;;;;;18.07;34.78;99021.69;4448556;32;34633;-83
2024/03/31 03:28:54;;;;;;;1.65;0.75;;;;;;;18.43;34.33;99019.44;4450129;32;31969;-83
2024/03/31 03:31:21;;;;;;;0.35;0.35;;;;;;;18.24;33.56;99019.38;4430665;32;32956;-83
2024/03/31 03:33:48;;;;;;;0.90;0.62;;;;;;;18.12;33.59;99024.81;4436094;32;32862;-83
2024/03/31 03:36:14;;;;;;;6.82;1.58;;;;;;;18.54;32.58;99030.03;4438386;32;33140;-82
2024/03/31 03:38:41;;;;;;;0.32;0.32;;;;;;;18.21;33.43;99025.81;4449889;32;33833;-82
2024/03/31 03:41:09;;;;;;;1.12;1.00;;;;;;;17.99;32.39;99029.50;4451093;32;33486;-82
2024/03/31 03:43:36;;;;;;;0.62;0.62;;;;;;;18.19;31.84;99025.13;4448813;32;34431;-82
2024/03/31 03:46:04;;;;;;;0.77;0.30;;;;;;;18.20;31.90;99028.66;4436530;32;33245;-82
2024/03/31 03:48:33;;;;;;;2.12;1.65;;;;;;;18.64;31.47;99036.25;4437047;32;31654;-82
2024/03/31 03:51:01;;;;;;;5.07;0.47;;;;;;;18.56;31.80;99030.75;4436810;32;32840;-83
2024/03/31 03:53:28;;;;;;;0.17;0.17;;;;;;;18.62;31.47;99035.53;4464518;32;32145;-82
2024/03/31 03:55:55;;;;;;;0.60;0.55;;;;;;;18.57;31.16;99032.44;4449745;32;32331;-82
2024/03/31 03:58:22;;;;;;;0.10;0.10;;;;;;;18.82;31.57;99030.28;4448336;32;33161;-82
2024/03/31 04:00:50;;;;;;;0.20;0.20;;;;;;;18.68;32.43;99043.03;4450502;32;34352;-82
2024/03/31 04:03:16;;;;;;;0.05;0.05;;;;;;;18.88;32.06;99041.25;4451986;32;32699;-83
2024/03/31 04:05:52;;;;;;;0.00;0.00;;;;;;;18.67;32.01;99045.84;4449088;32;33451;-83
2024/03/31 04:08:19;;;;;;;0.20;0.10;;;;;;;18.73;32.52;99052.50;4449862;32;34070;-83
2024/03/31 04:10:47;;;;;;;0.00;0.00;;;;;;;18.60;32.70;99048.19;4460835;32;33778;-83
2024/03/31 04:13:14;;;;;;;0.08;0.08;;;;;;;18.51;33.25;99051.69;4436732;32;34742;-83
2024/03/31 04:15:42;;;;;;;0.25;0.22;;;;;;;18.56;33.26;99052.16;4451707;32;34618;-84
2024/03/31 04:18:09;;;;;;;1.45;1.25;;;;;;;18.50;33.32;99058.00;4437638;32;32774;-84
2024/03/31 04:20:40;;;;;;;1.48;0.10;;;;;;;18.48;33.22;99057.31;4422473;32;32414;-83
2024/03/31 04:23:08;;;;;;;0.05;0.05;;;;;;;18.58;33.68;99054.66;4448342;32;33695;-83
2024/03/31 04:25:35;;;;;;;0.20;0.20;;;;;;;18.55;33.90;99060.28;4461750;32;33789;-83
2024/03/31 04:28:03;;;;;;;0.13;0.13;;;;;;;18.42;33.90;99069.41;4461100;32;32596;-83
2024/03/31 04:30:30;;;;;;;3.60;0.37;;;;;;;18.41;33.90;99074.84;4422844;32;32868;-83
2024/03/31 04:32:57;;;;;;;4.55;1.25;;;;;;;18.42;34.03;99073.91;4450868;32;33402;-83
2024/03/31 04:35:24;;;;;;;0.00;0.00;;;;;;;18.39;33.70;99076.84;4447175;32;32831;-83
2024/03/31 04:37:50;;;;;;;0.17;0.17;;;;;;;18.34;33.73;99076.38;4422801;32;33545;-83
2024/03/31 04:40:17;;;;;;;0.13;0.13;;;;;;;18.35;33.43;99072.72;4446108;32;33154;-84
2024/03/31 04:42:45;;;;;;;2.67;0.30;;;;;;;18.16;33.99;99071.66;4443582;32;33244;-83
2024/03/31 04:45:11;;;;;;;12.88;2.47;;;;;;;18.33;33.87;99074.69;4434608;32;32900;-83
2024/03/31 04:47:38;;;;;;;0.08;0.08;;;;;;;18.46;33.86;99069.09;4423134;32;31971;-84
2024/03/31 04:50:05;;;;;;;0.00;0.00;;;;;;;18.44;34.32;99061.22;4449203;32;32821;-83
2024/03/31 04:52:32;;;;;;;1.30;0.57;;;;;;;18.57;34.00;99061.84;4439116;32;33619;-84
2024/03/31 04:55:00;;;;;;;0.28;0.28;;;;;;;18.33;35.07;99056.84;4444224;32;32521;-83
2024/03/31 04:57:26;;;;;;;0.13;0.13;;;;;;;18.36;35.36;99059.22;4464296;32;34108;-84
2024/03/31 04:59:53;;;;;;;0.28;0.22;;;;;;;18.25;35.96;99055.81;4443777;32;32897;-84
2024/03/31 05:02:21;;;;;;;0.40;0.40;;;;;;;18.15;36.63;99056.59;4449365;32;33479;-83
2024/03/31 05:04:48;;;;;;;2.17;0.60;;;;;;;18.16;36.81;99058.28;4449981;32;32698;-83
2024/03/31 05:07:15;;;;;;;0.08;0.03;;;;;;;18.06;37.34;99051.22;4443973;32;31928;-83
2024/03/31 05:09:41;;;;;;;0.50;0.50;;;;;;;17.86;38.47;99053.78;4443058;32;32401;-83
2024/03/31 05:12:08;;;;;;;0.00;0.00;;;;;;;17.70;39.57;99061.34;4455718;32;33283;-84
2024/03/31 05:14:35;;;;;;;0.22;0.22;;;;;;;17.74;39.43;99057.47;4444143;32;34286;-84
2024/03/31 05:17:03;;;;;;;0.77;0.70;;;;;;;17.58;40.08;99068.59;4444317;32;33929;-84
2024/03/31 05:19:30;;;;;;;1.27;1.17;;;;;;;17.55;40.21;99073.34;4457478;32;33217;-83
2024/03/31 05:21:57;;;;;;;1.77;1.55;;;;;;;17.47;39.52;99071.31;4442738;32;34553;-83
2024/03/31 05:24:23;;;;;;;2.40;0.73;;;;;;;17.58;38.97;99062.41;4464943;32;34435;-83
2024/03/31 05:26:50;;;;;;;1.08;0.70;;;;;;;17.64;39.65;99072.56;4456319;32;32378;-83
2024/03/31 05:29:20;;;;;;;0.20;0.20;;;;;;;17.72;39.21;99072.78;4457382;32;32438;-83
2024/03/31 05:31:47;;;;;;;0.30;0.30;;;;;;;17.59;39.28;99077.44;4431236;32;33105;-83
2024/03/31 05:34:14;;;;;;;0.43;0.43;;;;;;;17.72;38.88;99063.91;4444147;32;32849;-83
2024/03/31 05:36:41;;;;;;;0.13;0.13;;;;;;;17.62;39.25;99070.03;4437050;32;32581;-83
2024/03/31 05:39:08;;;;;;;1.02;0.30;;;;;;;17.73;39.22;99076.28;4444127;32;32347;-81
2024/03/31 05:41:34;;;;;;;9.35;0.52;;;;;;;17.61;39.69;99072.81;4457774;32;33328;-81
2024/03/31 05:44:02;;;;;;;1.10;1.00;;;;;;;17.69;39.35;99072.19;4457094;32;33760;-83
2024/03/31 05:46:29;;;;;;;6.12;2.12;;;;;;;17.64;39.48;99073.41;4428483;32;33117;-82
2024/03/31 05:48:56;;;;;;;0.00;0.00;;;;;;;17.77;39.59;99083.09;4456090;32;33633;-82
2024/03/31 05:51:23;;;;;;;4.70;1.35;;;;;;;17.89;39.19;99087.37;4454941;32;32431;-82
2024/03/31 05:53:50;;;;;;;0.17;0.15;;;;;;;18.00;39.07;99087.31;4442772;32;33022;-82
2024/03/31 05:56:16;;;;;;;8.15;0.50;;;;;;;18.07;39.57;99072.44;4429271;32;32247;-82
2024/03/31 05:58:43;;;;;;;0.43;0.30;;;;;;;18.17;39.19;99068.00;4443452;32;32577;-82
2024/03/31 06:01:12;;;;;;;1.55;0.77;;;;;;;18.12;39.73;99074.72;4455996;32;32799;-83
2024/03/31 06:03:39;;;;;;;0.90;0.75;;;;;;;18.00;40.27;99086.47;4443446;32;32742;-82
2024/03/31 06:06:06;;;;;;;0.80;0.57;;;;;;;17.82;40.53;99091.56;4443242;32;35314;-82
2024/03/31 06:08:35;;;;;;;0.05;0.05;;;;;;;18.15;41.18;99094.00;4443365;32;32653;-82
2024/03/31 06:11:02;;;;;;;0.10;0.10;;;;;;;18.39;41.52;99091.03;4456200;32;33823;-82
2024/03/31 06:13:28;;;;;;;4.97;2.17;;;;;;;18.20;42.49;99088.28;4443469;32;32836;-82
2024/03/31 06:15:55;;;;;;;0.15;0.00;;;;;;;17.87;43.23;99089.34;4454813;32;33771;-82
2024/03/31 06:18:22;;;;;;;16.17;1.77;;;;;;;17.59;43.54;99091.63;4456334;32;33323;-83
2024/03/31 06:20:49;;;;;;;0.40;0.25;;;;;;;17.49;43.80;99106.72;4456031;32;34576;-83
2024/03/31 06:23:16;;;;;;;1.75;1.12;;;;;;;17.54;43.42;99101.00;4454109;32;33594;-83
2024/03/31 06:25:43;;;;;;;0.05;0.05;;;;;;;17.72;43.00;99104.81;4442171;32;32243;-83
2024/03/31 06:28:10;;;;;;;5.15;0.30;;;;;;;17.84;43.04;99105.62;4455848;32;33735;-83
2024/03/31 06:30:40;;;;;;;4.95;1.33;;;;;;;18.23;41.73;99105.84;4455528;32;33522;-83
2024/03/31 06:33:08;;;;;;;0.13;0.13;;;;;;;17.88;42.73;99107.06;4441700;31;33962;-82
2024/03/31 06:35:34;;;;;;;0.80;0.80;;;;;;;17.55;44.00;99108.87;4455195;32;32663;-81
2024/03/31 06:38:02;;;;;;;0.65;0.52;;;;;;;17.44;43.43;99110.75;4468732;32;34048;-81
2024/03/31 06:40:29;;;;;;;0.20;0.10;;;;;;;17.76;42.69;99110.78;4429472;32;32828;-82
2024/03/31 06:42:57;;;;;;;0.00;0.00;;;;;;;17.80;42.97;99107.72;4441654;32;32271;-84
2024/03/31 06:45:24;;;;;;;0.20;0.20;;;;;;;17.98;42.89;99097.28;4455044;32;32264;-84
2024/03/31 06:47:51;;;;;;;0.77;0.55;;;;;;;17.90;44.05;99089.09;4442684;32;30545;-83
2024/03/31 06:50:18;;;;;;;6.28;1.33;;;;;;;18.12;44.33;99096.09;4457796;32;33821;-84
2024/03/31 06:52:45;;;;;;;2.90;1.25;;;;;;;18.13;43.38;99087.09;4467707;32;34085;-85
2024/03/31 06:55:13;;;;;;;0.37;0.10;;;;;;;18.43;40.66;99088.94;4449096;32;32579;-86
2024/03/31 06:57:40;;;;;;;0.82;0.82;;;;;;;18.42;37.22;99088.09;4469413;32;33937;-86
2024/03/31 07:00:09;;;;;;;1.25;0.75;;;;;;;18.59;37.97;99077.75;4456494;32;34694;-86
2024/03/31 07:02:36;;;;;;;0.70;0.70;;;;;;;18.62;38.14;99080.16;4467948;32;33024;-86
2024/03/31 07:05:04;;;;;;;0.10;0.10;;;;;;;18.80;36.87;99069.66;4466980;32;33468;-86
2024/03/31 07:07:32;;;;;;;5.05;1.17;;;;;;;19.08;34.79;99065.34;4457738;32;34311;-86
2024/03/31 07:09:59;;;;;;;0.40;0.40;;;;;;;19.01;32.63;99064.22;4442870;31;32752;-86
2024/03/31 07:12:26;;;;;;;1.25;0.60;;;;;;;19.58;34.67;99063.41;4448774;31;33104;-86
2024/03/31 07:14:54;;;;;;;0.98;0.40;;;;;;;19.57;36.61;99075.12;4469182;32;32656;-86
2024/03/31 07:17:21;;;;;;;5.00;1.90;;;;;;;19.67;37.42;99073.31;4444536;32;32610;-86
2024/03/31 07:19:47;;;;;;;0.98;0.28;;;;;;;19.60;35.70;99071.31;4457744;32;33741;-86
2024/03/31 07:22:14;;;;;;;12.30;1.25;;;;;;;19.21;35.84;99073.97;4444714;32;33104;-86
2024/03/31 07:24:42;;;;;;;2.25;1.30;;;;;;;19.32;35.93;99083.69;4457083;32;34747;-86
2024/03/31 07:27:08;;;;;;;1.65;1.23;;;;;;;19.25;36.29;99082.56;4455176;32;33084;-86
2024/03/31 07:29:37;;;;;;;1.40;0.85;;;;;;;19.44;35.34;99072.72;4452558;32;33396;-86
2024/03/31 07:32:05;;;;;;;0.25;0.25;;;;;;;19.67;36.27;99070.63;4456214;32;33574;-85
2024/03/31 07:34:32;;;;;;;1.10;0.62;;;;;;;19.51;35.97;99072.97;4455498;32;32603;-84
2024/03/31 07:36:58;;;;;;;0.13;0.13;;;;;;;18.83;37.13;99077.44;4442757;32;32921;-84
2024/03/31 07:39:25;;;;;;;0.80;0.22;;;;;;;19.00;37.40;99074.09;4444219;32;32819;-85
2024/03/31 07:41:52;;;;;;;0.17;0.17;;;;;;;19.15;39.15;99072.69;4455919;32;33389;-85
2024/03/31 07:44:18;;;;;;;0.80;0.80;;;;;;;19.35;39.79;99072.72;4468809;32;33386;-85
2024/03/31 07:46:46;;;;;;;2.10;0.98;;;;;;;19.31;40.43;99065.94;4442817;32;32530;-85
2024/03/31 07:49:12;;;;;;;0.65;0.65;;;;;;;19.64;40.19;99070.06;4440854;32;34030;-84
2024/03/31 07:51:38;;;;;;;0.30;0.30;;;;;;;19.75;40.08;99075.28;4456773;32;34505;-84
2024/03/31 07:54:05;;;;;;;1.45;1.35;;;;;;;19.92;39.52;99081.72;4431148;32;33834;-84
2024/03/31 07:56:32;;;;;;;0.43;0.35;;;;;;;19.48;38.61;99084.00;4456321;32;33478;-84
2024/03/31 07:58:59;;;;;;;0.17;0.17;;;;;;;19.34;38.27;99101.31;4456524;32;33569;-83
2024/03/31 08:01:27;;;;;;;0.00;0.00;;;;;;;19.79;38.63;99097.25;4468025;31;33771;-84
2024/03/31 08:03:53;;;;;;;2.08;1.10;;;;;;;19.42;39.44;99085.41;4439595;32;33948;-84
2024/03/31 08:06:21;;;;;;;0.13;0.13;;;;;;;19.99;39.52;99090.91;4455631;32;33528;-84
2024/03/31 08:08:47;;;;;;;0.57;0.57;;;;;;;20.15;39.46;99083.09;4455513;32;32008;-84
2024/03/31 08:11:15;;;;;;;2.65;0.82;;;;;;;20.36;36.52;99082.88;4455256;32;33730;-84
2024/03/31 08:13:41;;;;;;;0.17;0.17;;;;;;;20.23;33.10;99082.38;4456647;32;32866;-84
2024/03/31 08:16:08;;;;;;;1.37;0.95;;;;;;;20.48;32.30;99094.28;4443224;32;32639;-84
2024/03/31 08:18:36;;;;;;;0.20;0.20;;;;;;;20.53;31.35;99096.53;4454520;32;34394;-84
2024/03/31 08:21:03;;;;;;;0.17;0.17;;;;;;;20.56;31.36;99091.72;4469472;32;34258;-84
2024/03/31 08:23:30;;;;;;;1.92;0.93;;;;;;;21.11;31.72;99091.69;4455956;32;33037;-85
2024/03/31 08:25:57;;;;;;;0.47;0.47;;;;;;;21.60;30.97;99092.22;4469504;32;33479;-85
2024/03/31 08:28:23;;;;;;;0.08;0.08;;;;;;;21.62;30.01;99095.59;4456415;32;32075;-84
2024/03/31 08:30:50;;;;;;;0.55;0.55;;;;;;;21.37;30.12;99091.84;4455869;32;33028;-84
2024/03/31 08:33:17;;;;;;;3.60;0.65;;;;;;;21.43;31.11;99095.75;4441902;32;32969;-85
2024/03/31 08:35:51;;;;;;;1.08;0.37;;;;;;;21.43;30.31;99087.69;4456248;32;34067;-85
2024/03/31 08:38:18;;;;;;;8.52;0.73;;;;;;;21.54;29.55;99092.81;4443562;32;33936;-85
2024/03/31 08:40:55;;;;;;;0.82;0.82;;;;;;;21.87;29.02;99082.34;4443407;32;34099;-84
2024/03/31 08:43:26;;;;;;;1.20;0.57;;;;;;;21.64;29.72;99077.47;4430868;32;32425;-85
2024/03/31 08:45:53;;;;;;;0.37;0.32;;;;;;;21.94;29.15;99073.50;4468340;31;32260;-85
2024/03/31 08:48:20;;;;;;;0.25;0.20;;;;;;;21.70;29.50;99071.50;4457280;32;32807;-85
2024/03/31 08:50:47;;;;;;;1.10;0.45;;;;;;;21.40;30.15;99079.94;4456548;32;35366;-85
2024/03/31 08:53:15;;;;;;;1.55;0.43;;;;;;;21.56;30.51;99077.41;4455241;32;32504;-85
2024/03/31 08:55:42;;;;;;;0.98;0.62;;;;;;;22.26;30.06;99081.97;4441658;32;33370;-86
2024/03/31 08:58:09;;;;;;;0.00;0.00;;;;;;;22.18;30.49;99074.72;4443107;32;35353;-86
2024/03/31 09:00:42;;;;;;;0.52;0.52;;;;;;;22.33;29.56;99080.34;4456529;32;33120;-85
2024/03/31 09:03:10;;;;;;;1.40;0.28;;;;;;;22.67;29.12;99086.56;4445518;32;34079;-86
2024/03/31 09:05:37;;;;;;;0.80;0.50;;;;;;;22.29;29.05;99087.03;4455084;32;33900;-85
2024/03/31 09:08:04;;;;;;;4.03;1.12;;;;;;;22.91;29.00;99076.94;4454582;32;32808;-85
2024/03/31 09:10:31;;;;;;;0.08;0.08;;;;;;;23.03;28.64;99081.00;4455525;32;32786;-85
2024/03/31 09:12:58;;;;;;;3.08;0.68;;;;;;;22.83;28.12;99077.69;4454398;32;31559;-86
2024/03/31 09:15:25;;;;;;;12.15;1.15;;;;;;;23.17;28.62;99072.31;4455927;32;33997;-86
2024/03/31 09:17:54;;;;;;;0.00;0.00;;;;;;;23.81;27.51;99058.22;4454560;32;32986;-85
2024/03/31 09:20:20;;;;;;;0.10;0.10;;;;;;;23.49;27.18;99070.63;4455034;32;32701;-85
2024/03/31 09:22:47;;;;;;;5.93;0.60;;;;;;;23.86;27.48;99051.31;4455705;32;32663;-85
2024/03/31 09:25:14;;;;;;;0.70;0.68;;;;;;;24.07;27.28;99045.38;4443139;32;34596;-85
2024/03/31 09:27:40;;;;;;;1.02;0.37;;;;;;;23.94;27.85;99048.59;4456262;32;32533;-85
2024/03/31 09:30:07;;;;;;;0.70;0.40;;;;;;;23.99;26.86;99048.94;4455729;32;33706;-86
2024/03/31 09:32:34;;;;;;;0.50;0.28;;;;;;;24.08;27.14;99054.31;4445539;32;32610;-87
2024/03/31 09:35:02;;;;;;;0.00;0.00;;;;;;;24.52;25.99;99060.12;4455059;32;33678;-85
2024/03/31 09:37:29;;;;;;;1.48;0.37;;;;;;;24.49;25.85;99052.34;4456528;32;33851;-83
2024/03/31 09:39:56;;;;;;;0.75;0.75;;;;;;;24.50;25.75;99045.97;4444903;32;34583;-84
2024/03/31 09:42:25;;;;;;;4.50;1.45;;;;;;;24.66;27.02;99036.94;4456203;32;31969;-84
2024/03/31 09:44:51;;;;;;;1.23;1.12;;;;;;;24.37;25.89;99037.56;4443675;32;32757;-84
2024/03/31 09:47:25;;;;;;;10.65;0.70;;;;;;;24.50;25.88;99021.69;4455022;32;34105;-85
2024/03/31 09:50:14;;;;;;;2.35;0.93;;;;;;;24.57;26.71;99016.41;4441718;32;33924;-84
2024/03/31 09:52:43;;;;;;;1.12;0.62;;;;;;;24.57;26.14;99003.75;4430236;32;33911;-85
2024/03/31 09:55:11;;;;;;;1.12;0.28;;;;;;;24.78;25.84;99009.41;4450286;32;33858;-85
2024/03/31 09:57:43;;;;;;;0.50;0.50;;;;;;;25.12;25.17;99008.22;4454334;32;33818;-85
2024/03/31 10:00:12;;;;;;;;;;;;;;;25.11;25.17;99009.19;4457391;32;34489;-84
2024/03/31 10:02:47;;;;;;;1.15;0.50;;;;;;;24.57;25.57;99017.25;4430563;32;32723;-85
2024/03/31 10:05:18;;;;;;;0.45;0.20;;;;;;;24.80;24.88;99006.50;4456332;32;33041;-84
2024/03/31 10:07:46;;;;;;;9.07;1.73;;;;;;;24.81;24.83;99001.94;4429367;32;35512;-85
2024/03/31 10:10:13;;;;;;;0.57;0.47;;;;;;;24.87;25.97;98999.38;4443031;32;33399;-84
2024/03/31 10:12:40;;;;;;;1.00;1.00;;;;;;;24.75;24.37;98988.13;4456852;32;32585;-84
2024/03/31 10:15:07;;;;;;;1.65;1.30;;;;;;;25.38;24.81;98988.06;4430761;32;34150;-85
2024/03/31 10:17:34;;;;;;;5.03;1.42;;;;;;;25.63;24.97;98986.81;4443158;32;32756;-85
2024/03/31 10:20:05;;;;;;;1.12;0.70;;;;;;;25.65;24.51;98990.19;4456223;32;34021;-84
2024/03/31 10:22:33;;;;;;;7.22;1.10;;;;;;;25.79;24.86;98992.12;4456841;32;34295;-84
2024/03/31 10:25:00;;;;;;;3.60;0.70;;;;;;;25.87;22.65;98993.06;4456587;32;35054;-84
2024/03/31 10:27:28;;;;;;;9.13;1.12;;;;;;;25.99;23.56;98991.59;4456377;32;32990;-85
2024/03/31 10:29:56;;;;;;;0.13;0.13;;;;;;;26.60;22.43;98988.69;4449735;32;34571;-84
2024/03/31 10:32:22;;;;;;;2.40;1.00;;;;;;;26.86;22.45;98988.16;4469612;32;32684;-84
2024/03/31 10:34:49;;;;;;;0.82;0.82;;;;;;;26.63;21.84;98994.53;4450726;32;33703;-84
2024/03/31 10:37:17;;;;;;;1.35;0.70;;;;;;;26.04;22.19;98991.88;4456304;32;34014;-85
2024/03/31 10:39:44;;;;;;;17.85;1.95;;;;;;;26.14;22.49;98987.00;4469317;32;32290;-84
2024/03/31 10:42:11;;;;;;;0.30;0.30;;;;;;;26.44;21.84;98984.31;4443174;32;32265;-84
2024/03/31 10:44:39;;;;;;;3.17;1.08;;;;;;;26.36;22.36;98979.00;4456530;32;34092;-84
2024/03/31 10:47:06;;;;;;;2.17;1.15;;;;;;;26.41;21.65;98979.25;4456333;32;33985;-84
2024/03/31 10:49:38;;;;;;;4.40;1.20;;;;;;;25.77;22.31;98980.63;4456403;32;32434;-84
2024/03/31 10:52:06;;;;;;;1.02;1.00;;;;;;;25.58;22.56;98975.72;4456009;32;33571;-85
2024/03/31 10:54:36;;;;;;;1.37;0.47;;;;;;;25.93;22.93;98987.75;4443104;32;34040;-84
2024/03/31 10:57:12;;;;;;;8.15;1.05;;;;;;;25.55;22.84;98981.50;4456257;32;33103;-85
2024/03/31 10:59:41;;;;;;;2.60;1.42;;;;;;;25.65;22.60;98979.37;4455772;32;34178;-85
2024/03/31 11:02:11;;;;;;;0.77;0.45;;;;;;;25.49;22.29;98976.81;4454203;31;33535;-85
2024/03/31 11:04:37;;;;;;;1.20;0.90;;;;;;;26.03;22.46;98961.28;4444021;32;32322;-84
2024/03/31 11:07:05;;;;;;;6.22;1.77;;;;;;;26.26;21.70;98969.28;4442857;32;34380;-84
2024/03/31 11:09:33;;;;;;;5.43;1.23;;;;;;;26.10;21.98;98977.59;4455492;32;33647;-84
2024/03/31 11:11:59;;;;;;;13.95;1.90;;;;;;;26.17;21.02;98978.53;4455866;32;31350;-84
2024/03/31 11:14:27;;;;;;;0.10;0.10;;;;;;;26.15;21.49;98980.56;4455617;32;34940;-85
2024/03/31 11:16:55;;;;;;;6.78;1.08;;;;;;;26.16;21.16;98967.88;4469112;32;33445;-85
2024/03/31 11:19:23;;;;;;;1.65;0.85;;;;;;;26.42;21.01;98970.09;4455649;32;33428;-85
2024/03/31 11:22:04;;;;;;;1.58;0.20;;;;;;;26.26;22.51;98977.41;4441908;32;34794;-85
2024/03/31 11:24:32;;;;;;;1.42;0.52;;;;;;;26.42;21.54;98978.22;4468584;32;32332;-84
2024/03/31 11:26:59;;;;;;;2.20;1.35;;;;;;;26.46;21.15;98976.84;4468964;32;33583;-84
2024/03/31 11:29:26;;;;;;;1.02;0.45;;;;;;;26.48;20.51;98972.09;4455512;32;34120;-84
2024/03/31 11:31:52;;;;;;;3.33;1.25;;;;;;;26.78;20.17;98959.34;4468427;32;33203;-84
2024/03/31 11:34:19;;;;;;;1.17;0.93;;;;;;;27.06;20.21;98951.25;4442196;32;33212;-85